Marathon, FL

12:29 AM EST on December 25, 2014 (GMT -0500)
APRSWXNET Marathon FL US | Change Station
CLOSE
Current Station
Personal Weather Station
Location: Marathon, FL
Elevation: 13 ft
Nearby Weather Stations

Elev 13 ft 24.76 °N, 80.96 °W | Updated 631 days ago

Thunderstorm
Thunderstorm
72 °F
Feels Like 72 °F
N
12
Wind Variable Wind from WSW
Gusts 14 mph

Today
High -- | Low -- °F
--% Chance of Precip.
Yesterday
High -- | Low -- °F
Precip. -- in
7:05 AM 5:42 PM
Waxing Crescent, 13% visible
Pressure 29.99 in
Visibility 10.0 miles
Clouds Few 7500 ft
Scattered Clouds 9000 ft
Dew Point 72 °F
Humidity 98%
Rainfall 0.08 in
Snow Depth Not available.
UV 0 out of 12
Pollen 2.20 out of 12
Air Quality Not available.
Flu Activity Not available.
METAR KNQX 250453Z AUTO 19013KT 10SM -RA FEW075 SCT090 25/23 A2999 RMK AO2 TSB0357E34 SLP153 P0000 T02500233 402830239 $

More Conditions Fewer Conditions

Pressure 29.99 in
Visibility 10.0 miles
Clouds Few 7500 ft
Scattered Clouds 9000 ft
Dew Point 72 °F
Humidity 98%
Rainfall 0.08 in
Snow Depth Not available.
UV 0 out of 12
Pollen 2.20 out of 12
Air Quality Not available.
Flu Activity Not available.
METAR KNQX 250453Z AUTO 19013KT 10SM -RA FEW075 SCT090 25/23 A2999 RMK AO2 TSB0357E34 SLP153 P0000 T02500233 402830239 $

More Conditions Fewer Conditions

Nowcast | as of 11:37 PM EST on December 24, 2014

Through 100 am...scattered to numerous showers will continue to impact the Florida Keys and surrounding waters. The majority of showers and thunderstorms will impact the mid to Upper Keys and offshore waters. Mariners and motorists can expect moderate rain with brief heavy downpours...significantly reduced visibility...and winds gusting 30 to 35 mph in stronger activity. Many island locations will see brief light to moderate rain with locally higher rainfall totals.

×

10-Day Weather Forecast

Almanac

Astronomy

Dec. 25, 2014 Rise Set
Actual Time
Civil Twilight
Nautical Twilight
Astronomical Twilight
Moon
Length of Visible Light
Length of Day
Tomorrow will be .
, % of the Moon is Illuminated

Today's Extremes

State Highs State Lows

Community

WunderPhotos

Upload Photos

1,780,244 photos uploaded!

WunderBlogs® & News

Nearby

Air Quality

  Air Quality AQ Index Pollutant
Not available.

Snow Depth

Station Depth Elevation

Earthquake Activity

City Distance Mag. Time & Date
Minimum magnitude displayed is 2.5.

Coastal Water Temperatures

Place Temperature

Nearby Weather Stations